x

Lake Of The Woods (45148) Wave Buoy

8:00am - Wed 29th Jul 2015 All times are UTC.

  • Sig Wave height 1.3ft
  • Peak Period 2s
  • Wind
    27mph, 34mph gusts
  • Sea Temp 71°f
  • Air Temp 63°f
  • Sea Pressure 995.5mb

More Historic Weather Station data

Upgrade to MSW Pro to gain access to the past 30 days of data for over 8000 Wavebouys and Weather Stations around the globe.

Join Pro

Comparision Forecast

View Surf forecast
   
Wed 07/29 8:00am 1.3ft 2s 27 34 mph 995.5mb 71f 63f
7:00am 0.7ft 3s 31 43 mph 995.9mb 71f 67f
6:00am 1ft 3s 27 36 mph 997mb 72f 69f
5:00am 0.3ft 3s 29 38 mph 998.4mb 72f 69f
4:00am 0.3ft 2s 29 38 mph 998.8mb 73f 72f
3:00am 0.3ft 2s 27 34 mph 1000.1mb 73f 73f
2:00am 0.3ft 2s 22 31 mph 1001.1mb 73f 73f
1:00am 0.7ft 2s 25 38 mph 1001.5mb 73f 74f
12:00am 0.3ft 2s 27 36 mph 1001.4mb 73f 75f
Tue 07/28 11:00pm 0.7ft 2s 22 31 mph 1001.3mb 74f 76f
10:00pm 0.7ft 2s 27 36 mph 1000.9mb 74f 78f
9:00pm  -  7s 20 25 mph 1000.8mb 75f 78f
8:00pm 0.3ft 2s 16 20 mph 1001.1mb 74f 76f
7:00pm 0.3ft 2s 18 25 mph 1001.7mb 74f 73f
6:00pm 0.3ft 2s 18 22 mph 1002.3mb 74f 74f
5:00pm 0.3ft 2s 16 18 mph 1003.2mb 74f 73f
4:00pm  -  7s 13 20 mph 1004.5mb 74f 74f
3:00pm  -  7s 16 20 mph 1004.7mb 74f 74f
2:00pm  -  7s 18 22 mph 1004.5mb 74f 74f
1:00pm  -  7s 20 25 mph 1004.4mb 74f 74f
12:00pm  -  7s 18 20 mph 1005.9mb 75f 74f
11:00am  -  7s 16 18 mph 1006.2mb 75f 75f
10:00am  -  7s 13 18 mph 1006.6mb 75f 75f
9:00am  -  7s 11 16 mph 1007.3mb 75f 76f
8:00am  -  7s 13 18 mph 1008.1mb 76f 77f
7:00am  -  7s 13 16 mph 1009mb 76f 78f
6:00am  -  7s 11 13 mph 1010mb 77f 78f
5:00am  -  7s 9 11 mph 1010.9mb 77f 79f
4:00am  -  7s 9 11 mph 1011mb 78f 80f
3:00am  -  7s 9
mph
1011mb 79f 81f
2:00am  -  7s 7
mph
1010.8mb 80f 82f
1:00am  -  7s 7 9 mph 1010.9mb 79f 83f
12:00am  -  7s 7 9 mph 1010.7mb 80f 84f
Mon 07/27 10:00pm  -  7s  -  2 mph 1011.5mb 80f 84f
9:00pm  -  7s  -  2 mph 1012.2mb 80f 84f
8:00pm 0.3ft 7s 7 9 mph 1012.8mb 81f 83f
7:00pm  -  7s  -  2 mph 1012.9mb 80f 81f
6:00pm 0.3ft 2s 2 4 mph 1013mb 77f 80f
5:00pm  -  7s 4 7 mph 1013.4mb 75f 79f
4:00pm 0.3ft 3s 7 9 mph 1013.6mb 74f 78f
3:00pm 0.3ft 3s 9 11 mph 1013.6mb 74f 76f
2:00pm  -  7s 9 11 mph 1013.7mb 74f 75f
1:00pm  -  7s 7 9 mph 1013.8mb 73f 75f
12:00pm  -  7s 9
mph
1013.5mb 73f 74f
11:00am  -  7s 4
mph
1013.1mb 73f 74f
10:00am  -  7s 4 7 mph 1012.7mb 73f 74f
9:00am  -  7s 7
mph
1012.4mb 73f 75f
8:00am  -  7s 9 11 mph 1012.1mb 74f 76f
7:00am  -  7s 9 11 mph 1012.3mb 74f 77f
6:00am 0.3ft 2s 13 18 mph 1011.9mb 74f 77f
5:00am 0.3ft 2s 9 11 mph 1012mb 74f 77f
4:00am  -  7s 9 11 mph 1012.3mb 74f 77f
3:00am  -  7s 9 11 mph 1012.2mb 74f 78f
2:00am  -  2s 9 11 mph 1011.6mb 74f 79f
1:00am  -  7s 11 13 mph 1010.9mb 75f 80f
12:00am 0.3ft 3s 11 13 mph 1010.3mb 74f 81f
Sun 07/26 11:00pm 0.3ft 2s 11 13 mph 1011mb 74f 83f
10:00pm 0.3ft 3s 11 16 mph 1011.3mb 74f 82f
9:00pm 0.3ft 3s 16 18 mph 1011.6mb 74f 81f
8:00pm 0.3ft 3s 11 16 mph 1011.9mb 75f 81f
7:00pm 0.3ft 3s 9 13 mph 1011.8mb 75f 80f
6:00pm 0.3ft 2s 11 13 mph 1012.1mb 75f 80f
5:00pm 0.3ft 3s 4
mph
1012.2mb 76f 78f
4:00pm 0.3ft 2s 4
mph
1012.3mb 74f 76f
3:00pm  -  7s 7 9 mph 1012.2mb 73f 74f
2:00pm  -  7s 4
mph
1012.5mb 73f 73f
1:00pm  -  7s 4 7 mph 1012.1mb 73f 72f
12:00pm  -  7s 2 4 mph 1011.9mb 72f 71f
11:00am  -  7s 2
mph
1011.7mb 72f 70f
10:00am  -  7s 2
mph
1011.4mb 72f 70f
9:00am  -  7s 4 7 mph 1011mb 72f 70f
8:00am  -  7s 4
mph
1011.4mb 72f 72f
7:00am  -  7s  -  2 mph 1011.5mb 72f 71f
6:00am  -  7s 4
mph
1011mb 72f 72f
5:00am  -  7s 2 7 mph 1010.7mb 72f 73f
4:00am  -  2s 2
mph
1010.8mb 72f 72f
3:00am 0.3ft 2s  -  2 mph 1010.7mb 73f 75f
2:00am 0.3ft 3s 4
mph
1010.1mb 72f 75f
1:00am 0.3ft 3s 9 11 mph 1010.1mb 73f 76f
12:00am  -  7s 11 13 mph 1009.9mb 73f 77f
Sat 07/25 11:00pm  -  7s 11 13 mph 1010.4mb 73f 77f
10:00pm  -  7s 11 18 mph 1010.4mb 73f 78f
9:00pm  -  7s 11 13 mph 1010.8mb 74f 78f
8:00pm  -  7s 7 9 mph 1010.9mb 75f 80f
7:00pm  -  7s 9
mph
1011.1mb 74f 79f
6:00pm  -  7s 7 9 mph 1011.6mb 74f 78f
5:00pm  -  7s 4 7 mph 1012mb 73f 75f
4:00pm  -  7s 7
mph
1012.4mb 72f 74f
3:00pm  -  7s 9
mph
1012.2mb 72f 73f
2:00pm  -  7s 11 13 mph 1012.4mb 71f 72f
1:00pm  -  7s 11 13 mph 1012.1mb 71f 71f
12:00pm  -  7s 9 11 mph 1012.1mb 71f 70f
11:00am  -  7s 9 11 mph 1011.9mb 71f 69f
10:00am  -  7s 7 9 mph 1011.8mb 72f 69f